New Albany, Indiana
Current Conditions -  °F | °C
As of 4:56 AM on Friday 28 Nov 2014 (Local Time) from KSDF Reporting Station
Broken Clouds Broken Clouds  
Wind Chill: 21°   Ceiling: 15000
Heat Index: 26°   Visibility: 10mi
Dew Point: 19°   Wind: 5mph
Humidity: 75%   Direction: 260°W
Pressure: 30.43"   Gusts: NA
Location:  38.29°N, 85.82°W
Report Text: KSDF 280956Z 26004KT 10SM FEW100 BKN150 M03/M07 A3043 RMK AO2 SLP310 T10331072
Loading
Personal Weather Stations






























Interactive Weather Map New forecast layout! Learn more

10-Day Weather Forecast

Advertisements
Track Severe Weather on mobile